Time;durP1;ratioP1;P1;durP2;ratioP2;P2;SDS_P1;SDS_P2;PMS_P1;PMS_P2;Temp;Humidity;BMP_temperature;BMP_pressure;BME280_temperature;BME280_humidity;BME280_pressure;Samples;Min_cycle;Max_cycle;Signal;HPM_P1;HPM_P2
2022/12/13 00:01:10;;;;;;;29.73;15.27;;;;;;;;;;4845884;29;20562;-62
2022/12/13 00:03:36;;;;;;;29.58;15.27;;;;;;;;;;4861869;29;20097;-61
2022/12/13 00:06:04;;;;;;;28.55;14.82;;;;;;;;;;4861259;29;20045;-61
2022/12/13 00:08:30;;;;;;;29.85;14.95;;;;;;;;;;4845429;29;20049;-62
2022/12/13 00:11:01;;;;;;;30.35;16.13;;;;;;;;;;4861405;29;20499;-61
2022/12/13 00:13:28;;;;;;;28.45;15.23;;;;;;;;;;4861489;29;20102;-61
2022/12/13 00:15:55;;;;;;;30.23;16.38;;;;;;;;;;4844325;29;20436;-61
2022/12/13 00:18:21;;;;;;;37.55;17.02;;;;;;;;;;4861499;29;20053;-62
2022/12/13 00:20:48;;;;;;;30.52;15.60;;;;;;;;;;4861425;29;20064;-62
2022/12/13 00:23:14;;;;;;;29.50;16.20;;;;;;;;;;4861366;29;20069;-61
2022/12/13 00:25:41;;;;;;;34.15;15.98;;;;;;;;;;4860880;29;20050;-62
2022/12/13 00:28:07;;;;;;;34.30;16.88;;;;;;;;;;4844971;29;20057;-62
2022/12/13 00:30:34;;;;;;;28.67;14.25;;;;;;;;;;4861077;29;20113;-61
2022/12/13 00:33:00;;;;;;;33.65;16.58;;;;;;;;;;4861262;29;20108;-62
2022/12/13 00:35:27;;;;;;;28.55;15.88;;;;;;;;;;4844057;29;20057;-61
2022/12/13 00:37:53;;;;;;;36.67;17.67;;;;;;;;;;4861287;29;20499;-61
2022/12/13 00:40:20;;;;;;;32.00;16.85;;;;;;;;;;4844442;29;20088;-61
2022/12/13 00:42:46;;;;;;;34.28;16.98;;;;;;;;;;4860992;29;20045;-60
2022/12/13 00:45:12;;;;;;;34.78;19.58;;;;;;;;;;4860534;29;20054;-62
2022/12/13 00:47:39;;;;;;;38.25;18.45;;;;;;;;;;4860889;29;20046;-62
2022/12/13 00:50:06;;;;;;;39.17;17.35;;;;;;;;;;4860941;29;20050;-62
2022/12/13 00:52:33;;;;;;;34.28;18.05;;;;;;;;;;4844409;29;20061;-61
2022/12/13 00:54:59;;;;;;;33.88;18.25;;;;;;;;;;4843893;29;20057;-62
2022/12/13 00:57:26;;;;;;;40.75;18.75;;;;;;;;;;4843877;29;20045;-61
2022/12/13 00:59:52;;;;;;;33.42;18.33;;;;;;;;;;4860510;29;20042;-61
2022/12/13 01:02:19;;;;;;;38.28;19.20;;;;;;;;;;4860562;29;20054;-61
2022/12/13 01:04:47;;;;;;;44.15;20.80;;;;;;;;;;4860581;29;20094;-61
2022/12/13 01:07:14;;;;;;;37.03;18.20;;;;;;;;;;4843472;29;20061;-62
2022/12/13 01:09:41;;;;;;;39.30;19.30;;;;;;;;;;4860516;29;20049;-61
2022/12/13 01:12:10;;;;;;;39.78;19.23;;;;;;;;;;4844009;29;20543;-61
2022/12/13 01:14:37;;;;;;;37.50;18.83;;;;;;;;;;4860511;29;20052;-60
2022/12/13 01:17:04;;;;;;;35.25;17.90;;;;;;;;;;4859757;29;20042;-62
2022/12/13 01:19:31;;;;;;;37.67;19.45;;;;;;;;;;4860353;29;20117;-61
2022/12/13 01:21:59;;;;;;;32.30;16.60;;;;;;;;;;4843856;29;20050;-61
2022/12/13 01:24:25;;;;;;;35.90;17.95;;;;;;;;;;4860461;29;20042;-61
2022/12/13 01:26:52;;;;;;;39.75;18.95;;;;;;;;;;4859649;29;20045;-61
2022/12/13 01:29:23;;;;;;;32.67;16.77;;;;;;;;;;4844579;29;20459;-60
2022/12/13 01:31:51;;;;;;;35.90;18.75;;;;;;;;;;4860262;29;20105;-61
2022/12/13 01:34:18;;;;;;;34.53;15.70;;;;;;;;;;4860189;29;20575;-61
2022/12/13 01:36:45;;;;;;;33.33;17.70;;;;;;;;;;4859432;29;20038;-60
2022/12/13 01:39:13;;;;;;;31.35;16.58;;;;;;;;;;4860006;29;20045;-60
2022/12/13 01:41:41;;;;;;;36.63;17.42;;;;;;;;;;4860023;29;20048;-60
2022/12/13 01:44:26;;;;;;;30.88;16.33;;;;;;;;;;4843326;29;20050;-61
2022/12/13 01:46:52;;;;;;;35.03;17.70;;;;;;;;;;4859102;29;20053;-61
2022/12/13 01:49:19;;;;;;;32.90;17.25;;;;;;;;;;4843448;29;20080;-61
2022/12/13 01:52:00;;;;;;;32.83;15.80;;;;;;;;;;4859562;29;20098;-61
2022/12/13 01:54:29;;;;;;;36.92;17.27;;;;;;;;;;4859924;29;20061;-61
2022/12/13 01:57:02;;;;;;;34.80;17.92;;;;;;;;;;4859003;29;20518;-61
2022/12/13 01:59:28;;;;;;;38.92;18.33;;;;;;;;;;4827812;29;20057;-61
2022/12/13 02:01:55;;;;;;;37.30;18.67;;;;;;;;;;4859894;29;20094;-61
2022/12/13 02:04:29;;;;;;;41.28;18.90;;;;;;;;;;4859623;29;20045;-61
2022/12/13 02:06:55;;;;;;;41.80;20.58;;;;;;;;;;4858865;29;20049;-62
2022/12/13 02:09:22;;;;;;;41.25;18.55;;;;;;;;;;4859493;29;20074;-61
2022/12/13 02:11:50;;;;;;;35.63;18.75;;;;;;;;;;4859528;29;20055;-62
2022/12/13 02:14:16;;;;;;;35.92;18.75;;;;;;;;;;4859578;29;20468;-61
2022/12/13 02:16:54;;;;;;;40.67;19.05;;;;;;;;;;4858843;29;20444;-61
2022/12/13 02:19:36;;;;;;;38.50;18.80;;;;;;;;;;4859394;29;20049;-61
2022/12/13 02:22:38;;;;;;;38.30;19.33;;;;;;;;;;4859407;29;20049;-61
2022/12/13 02:25:22;;;;;;;34.78;17.52;;;;;;;;;;4783602;30;20075;-62
2022/12/13 02:27:54;;;;;;;37.40;18.08;;;;;;;;;;4855878;29;20054;-61
2022/12/13 02:30:46;;;;;;;32.30;16.52;;;;;;;;;;4859435;29;20608;-61
2022/12/13 02:33:36;;;;;;;34.70;17.42;;;;;;;;;;4859141;29;20066;-61
2022/12/13 02:36:02;;;;;;;32.25;16.42;;;;;;;;;;4824264;29;20049;-60
2022/12/13 02:38:58;;;;;;;32.92;16.67;;;;;;;;;;4859419;29;20049;-60
2022/12/13 02:41:37;;;;;;;34.33;18.08;;;;;;;;;;4848849;29;20058;-60
2022/12/13 02:44:10;;;;;;;31.25;17.30;;;;;;;;;;4865348;29;20061;-61
2022/12/13 02:46:51;;;;;;;37.25;18.88;;;;;;;;;;4858757;29;20053;-60
2022/12/13 02:49:18;;;;;;;38.58;18.40;;;;;;;;;;4859139;29;20050;-61
2022/12/13 02:51:45;;;;;;;39.25;19.02;;;;;;;;;;4858111;29;20053;-60
2022/12/13 02:54:12;;;;;;;36.50;18.35;;;;;;;;;;4859176;29;20078;-61
2022/12/13 02:56:38;;;;;;;36.05;17.88;;;;;;;;;;4857533;29;20038;-61
2022/12/13 02:59:09;;;;;;;39.58;17.52;;;;;;;;;;4859107;29;20046;-60
2022/12/13 03:01:42;;;;;;;36.45;18.48;;;;;;;;;;4858936;29;20042;-61
2022/12/13 03:04:11;;;;;;;32.15;16.98;;;;;;;;;;4859219;29;20120;-60
2022/12/13 03:06:57;;;;;;;40.25;18.63;;;;;;;;;;4858426;29;20057;-61
2022/12/13 03:09:44;;;;;;;32.38;16.83;;;;;;;;;;4859302;29;20451;-60
2022/12/13 03:15:11;;;;;;;38.25;19.05;;;;;;;;;;4859789;29;20061;-62
2022/12/13 03:17:49;;;;;;;34.55;17.52;;;;;;;;;;4860997;29;20125;-60
2022/12/13 03:20:17;;;;;;;32.40;17.25;;;;;;;;;;4861867;29;20459;-61
2022/12/13 03:22:49;;;;;;;33.85;18.02;;;;;;;;;;4862833;29;20392;-60
2022/12/13 03:25:15;;;;;;;31.50;16.40;;;;;;;;;;4862338;29;20050;-61
2022/12/13 03:27:58;;;;;;;32.58;18.10;;;;;;;;;;4863957;29;20489;-61
2022/12/13 03:30:28;;;;;;;31.92;16.33;;;;;;;;;;4865182;29;20139;-61
2022/12/13 03:32:54;;;;;;;33.20;17.50;;;;;;;;;;4865372;29;20041;-60
2022/12/13 03:35:20;;;;;;;32.45;17.42;;;;;;;;;;4864479;29;20059;-60
2022/12/13 03:37:48;;;;;;;38.63;18.35;;;;;;;;;;4863493;29;20076;-60
2022/12/13 03:40:15;;;;;;;42.33;17.80;;;;;;;;;;4864748;29;20042;-61
2022/12/13 03:42:41;;;;;;;37.25;18.08;;;;;;;;;;4864308;29;20050;-60
2022/12/13 03:45:08;;;;;;;31.95;16.42;;;;;;;;;;4862484;29;20053;-61
2022/12/13 03:47:35;;;;;;;32.40;16.65;;;;;;;;;;4865427;29;20046;-61
2022/12/13 03:50:02;;;;;;;28.70;16.10;;;;;;;;;;4865441;29;20045;-61
2022/12/13 03:52:50;;;;;;;32.15;16.50;;;;;;;;;;4865706;29;20448;-61
2022/12/13 03:55:17;;;;;;;31.10;15.93;;;;;;;;;;4864836;29;20129;-61
2022/12/13 03:57:44;;;;;;;35.00;16.58;;;;;;;;;;4865110;29;20101;-61
2022/12/13 04:00:10;;;;;;;37.00;18.95;;;;;;;;;;4864801;29;20102;-61
2022/12/13 04:02:40;;;;;;;37.75;17.60;;;;;;;;;;4864020;29;20507;-60
2022/12/13 04:05:08;;;;;;;38.13;18.55;;;;;;;;;;4865417;29;20198;-60
2022/12/13 04:07:34;;;;;;;36.72;19.00;;;;;;;;;;4865695;29;20094;-61
2022/12/13 04:10:01;;;;;;;35.70;17.65;;;;;;;;;;4864825;29;20053;-60
2022/12/13 04:15:14;;;;;;;35.42;18.85;;;;;;;;;;4866044;29;20049;-60
2022/12/13 04:17:41;;;;;;;36.88;19.42;;;;;;;;;;4866097;29;20046;-60
2022/12/13 04:20:07;;;;;;;41.63;20.65;;;;;;;;;;4865708;29;20045;-60
2022/12/13 04:22:34;;;;;;;36.40;19.00;;;;;;;;;;4865174;29;20046;-60
2022/12/13 04:25:00;;;;;;;39.88;19.65;;;;;;;;;;4861690;29;20045;-60
2022/12/13 04:27:27;;;;;;;37.05;18.02;;;;;;;;;;4861756;29;20460;-60
2022/12/13 04:29:53;;;;;;;35.25;18.42;;;;;;;;;;4861617;29;20468;-60
2022/12/13 04:32:20;;;;;;;38.45;18.63;;;;;;;;;;4861835;29;20048;-60
2022/12/13 04:34:52;;;;;;;37.85;18.75;;;;;;;;;;4861811;29;20534;-60
2022/12/13 04:37:37;;;;;;;37.85;20.17;;;;;;;;;;4860421;29;20534;-60
2022/12/13 04:40:08;;;;;;;35.95;18.88;;;;;;;;;;4861663;29;20049;-60
2022/12/13 04:42:35;;;;;;;34.42;18.85;;;;;;;;;;4861570;29;20453;-60
2022/12/13 04:45:02;;;;;;;37.78;18.27;;;;;;;;;;4860238;29;20049;-60
2022/12/13 04:47:28;;;;;;;38.72;19.15;;;;;;;;;;4861572;29;20060;-60
2022/12/13 04:49:54;;;;;;;37.60;18.08;;;;;;;;;;4860543;29;20495;-59
2022/12/13 04:52:21;;;;;;;38.92;19.00;;;;;;;;;;4861356;29;20114;-60
2022/12/13 04:54:48;;;;;;;36.58;19.23;;;;;;;;;;4861434;29;20042;-60
2022/12/13 04:57:22;;;;;;;35.85;18.67;;;;;;;;;;4860939;29;20120;-60
2022/12/13 04:59:48;;;;;;;41.53;19.77;;;;;;;;;;4860021;29;20415;-61
2022/12/13 05:02:15;;;;;;;31.92;18.83;;;;;;;;;;5278018;23;20103;-61
2022/12/13 05:04:49;;;;;;;33.53;17.40;;;;;;;;;;4917380;29;20062;-62
2022/12/13 05:07:21;;;;;;;37.72;19.90;;;;;;;;;;4900222;29;20044;-62
2022/12/13 05:09:48;;;;;;;35.15;19.02;;;;;;;;;;4917324;29;20044;-60
2022/12/13 05:12:14;;;;;;;35.60;19.10;;;;;;;;;;4908608;29;20100;-62
2022/12/13 05:14:48;;;;;;;42.28;18.23;;;;;;;;;;4898306;29;20506;-62
2022/12/13 05:17:15;;;;;;;34.63;18.23;;;;;;;;;;4897746;29;20427;-61
2022/12/13 05:19:42;;;;;;;37.45;19.00;;;;;;;;;;4898342;29;20041;-61
2022/12/13 05:22:14;;;;;;;33.85;18.30;;;;;;;;;;4898017;29;20053;-61
2022/12/13 05:24:45;;;;;;;38.50;18.25;;;;;;;;;;4898499;29;20524;-61
2022/12/13 05:27:11;;;;;;;36.03;18.75;;;;;;;;;;4897602;29;20044;-61
2022/12/13 05:29:51;;;;;;;40.15;20.35;;;;;;;;;;4898056;29;20056;-60
2022/12/13 05:32:33;;;;;;;41.38;19.00;;;;;;;;;;4897976;29;20525;-60
2022/12/13 05:35:10;;;;;;;40.45;18.15;;;;;;;;;;4880625;29;20075;-60
2022/12/13 05:37:36;;;;;;;37.40;18.55;;;;;;;;;;4897849;29;20097;-60
2022/12/13 05:40:03;;;;;;;34.03;18.10;;;;;;;;;;4897450;29;20045;-60
2022/12/13 05:42:29;;;;;;;40.90;19.08;;;;;;;;;;4897935;29;20052;-61
2022/12/13 05:44:55;;;;;;;41.38;19.50;;;;;;;;;;4897648;29;20462;-59
2022/12/13 05:47:22;;;;;;;45.17;19.65;;;;;;;;;;4897362;29;20733;-60
2022/12/13 05:49:48;;;;;;;39.60;18.65;;;;;;;;;;4897757;29;20049;-60
2022/12/13 05:52:19;;;;;;;35.70;18.23;;;;;;;;;;4880732;29;20057;-60
2022/12/13 05:54:45;;;;;;;39.90;18.67;;;;;;;;;;4881346;29;20399;-61
2022/12/13 05:57:12;;;;;;;37.45;19.27;;;;;;;;;;4880429;29;20048;-61
2022/12/13 05:59:38;;;;;;;40.97;20.15;;;;;;;;;;4897683;29;20044;-60
2022/12/13 06:02:05;;;;;;;36.15;17.70;;;;;;;;;;4897471;29;20104;-62
2022/12/13 06:04:31;;;;;;;35.33;17.27;;;;;;;;;;4897980;29;20076;-61
2022/12/13 06:06:58;;;;;;;31.60;18.38;;;;;;;;;;4880470;29;20048;-63
2022/12/13 06:09:24;;;;;;;37.22;19.38;;;;;;;;;;4880669;29;20482;-62
2022/12/13 06:11:51;;;;;;;37.63;18.08;;;;;;;;;;4897274;29;20096;-65
2022/12/13 06:14:26;;;;;;;32.97;17.70;;;;;;;;;;4897303;29;20123;-62
2022/12/13 06:16:53;;;;;;;31.73;16.52;;;;;;;;;;4896776;29;20096;-62
2022/12/13 06:19:20;;;;;;;35.10;17.58;;;;;;;;;;4880561;29;20577;-63
2022/12/13 06:21:46;;;;;;;33.45;17.13;;;;;;;;;;4897208;29;20052;-61
2022/12/13 06:24:14;;;;;;;33.67;17.75;;;;;;;;;;4897414;29;20047;-61
2022/12/13 06:26:41;;;;;;;33.95;16.55;;;;;;;;;;4896602;29;20054;-62
2022/12/13 06:29:07;;;;;;;37.55;18.00;;;;;;;;;;4897556;29;20104;-61
2022/12/13 06:31:33;;;;;;;32.03;17.73;;;;;;;;;;4897068;29;20095;-59
2022/12/13 06:34:00;;;;;;;36.17;17.75;;;;;;;;;;4897308;29;20090;-59
2022/12/13 06:36:40;;;;;;;33.10;16.88;;;;;;;;;;4896756;29;20048;-61
2022/12/13 06:39:06;;;;;;;36.45;17.98;;;;;;;;;;4897213;29;20501;-63
2022/12/13 06:41:33;;;;;;;32.50;17.80;;;;;;;;;;4899934;29;20072;-61
2022/12/13 06:44:00;;;;;;;35.80;17.90;;;;;;;;;;4904227;29;20419;-61
2022/12/13 06:46:26;;;;;;;41.22;18.13;;;;;;;;;;4903280;29;20044;-60
2022/12/13 06:48:53;;;;;;;32.53;17.17;;;;;;;;;;4897487;29;20494;-60
2022/12/13 06:51:19;;;;;;;35.63;18.08;;;;;;;;;;4898125;29;20048;-60
2022/12/13 06:53:57;;;;;;;38.47;18.15;;;;;;;;;;4901146;29;20093;-62
2022/12/13 06:56:26;;;;;;;34.47;18.13;;;;;;;;;;4900374;29;20128;-61
2022/12/13 06:58:52;;;;;;;36.15;16.50;;;;;;;;;;4901031;29;20194;-60
2022/12/13 07:01:26;;;;;;;;;;;;;;;;;;4901144;29;20041;-61
2022/12/13 07:03:53;;;;;;;34.00;16.35;;;;;;;;;;4900847;29;19923;-60
2022/12/13 07:06:20;;;;;;;33.13;16.73;;;;;;;;;;4900147;29;20053;-61
2022/12/13 07:08:48;;;;;;;34.03;18.08;;;;;;;;;;4900631;29;20049;-60
2022/12/13 07:11:15;;;;;;;42.42;19.40;;;;;;;;;;4900699;29;20040;-61
2022/12/13 07:13:42;;;;;;;32.10;17.20;;;;;;;;;;4900673;29;20100;-61
2022/12/13 07:16:09;;;;;;;37.75;17.98;;;;;;;;;;4883089;29;20049;-60
2022/12/13 07:18:36;;;;;;;37.97;18.02;;;;;;;;;;4900736;29;20040;-60
2022/12/13 07:21:03;;;;;;;33.15;17.17;;;;;;;;;;4900651;29;20045;-61
2022/12/13 07:23:30;;;;;;;36.50;17.88;;;;;;;;;;4900421;29;20108;-61
2022/12/13 07:25:56;;;;;;;37.60;18.88;;;;;;;;;;4899908;29;20413;-61
2022/12/13 07:28:23;;;;;;;36.60;17.95;;;;;;;;;;4900409;29;20052;-60
2022/12/13 07:30:49;;;;;;;34.65;17.77;;;;;;;;;;4900403;29;20079;-60
2022/12/13 07:33:16;;;;;;;33.58;18.15;;;;;;;;;;4900147;29;20080;-59
2022/12/13 07:35:48;;;;;;;36.55;18.65;;;;;;;;;;4899909;29;20494;-60
2022/12/13 07:38:21;;;;;;;35.25;17.77;;;;;;;;;;4900771;29;20132;-61
2022/12/13 07:40:47;;;;;;;38.08;18.00;;;;;;;;;;4900262;29;20451;-61
2022/12/13 07:43:14;;;;;;;36.05;18.65;;;;;;;;;;4900345;29;20452;-61
2022/12/13 07:45:41;;;;;;;41.35;20.85;;;;;;;;;;4899477;29;20045;-60
2022/12/13 07:48:07;;;;;;;30.10;17.65;;;;;;;;;;4900220;29;20092;-60
2022/12/13 07:50:34;;;;;;;32.53;16.77;;;;;;;;;;4883549;29;20064;-60
2022/12/13 07:53:04;;;;;;;36.80;17.52;;;;;;;;;;4899986;29;20051;-60
2022/12/13 07:55:32;;;;;;;37.53;18.55;;;;;;;;;;4882876;29;20080;-60
2022/12/13 07:58:07;;;;;;;36.30;18.23;;;;;;;;;;4899798;29;20091;-60
2022/12/13 08:00:34;;;;;;;36.20;19.17;;;;;;;;;;4899607;29;20048;-61
2022/12/13 08:03:01;;;;;;;31.70;16.58;;;;;;;;;;4898896;29;20052;-60
2022/12/13 08:05:27;;;;;;;37.05;17.70;;;;;;;;;;4899116;29;20041;-60
2022/12/13 08:08:05;;;;;;;37.10;18.45;;;;;;;;;;4899698;29;20481;-60
2022/12/13 08:10:32;;;;;;;34.10;18.15;;;;;;;;;;4899665;29;20045;-60
2022/12/13 08:13:01;;;;;;;35.53;18.25;;;;;;;;;;4899524;29;20064;-60
2022/12/13 08:15:28;;;;;;;37.33;19.20;;;;;;;;;;4898805;29;20048;-60
2022/12/13 08:17:55;;;;;;;40.60;20.52;;;;;;;;;;4882769;29;20052;-60
2022/12/13 08:20:21;;;;;;;38.33;19.80;;;;;;;;;;4882841;29;20458;-61
2022/12/13 08:22:54;;;;;;;40.35;18.80;;;;;;;;;;4899229;29;20056;-61
2022/12/13 08:25:28;;;;;;;39.15;18.83;;;;;;;;;;4883106;29;20490;-61
2022/12/13 08:27:54;;;;;;;37.47;18.08;;;;;;;;;;4899272;29;20482;-61
2022/12/13 08:30:27;;;;;;;36.60;17.90;;;;;;;;;;4899201;29;20053;-61
2022/12/13 08:32:54;;;;;;;35.33;18.98;;;;;;;;;;4899233;29;20072;-61
2022/12/13 08:35:21;;;;;;;42.45;20.23;;;;;;;;;;4898537;29;20064;-62
2022/12/13 08:37:47;;;;;;;46.60;18.65;;;;;;;;;;4882339;29;20037;-61
2022/12/13 08:40:14;;;;;;;35.80;17.85;;;;;;;;;;4882265;29;20049;-62
2022/12/13 08:42:40;;;;;;;39.88;19.50;;;;;;;;;;4899335;29;20073;-62
2022/12/13 08:45:07;;;;;;;38.60;20.10;;;;;;;;;;4898306;29;20508;-62
2022/12/13 08:47:33;;;;;;;37.42;18.38;;;;;;;;;;4899011;29;20052;-62
2022/12/13 08:50:07;;;;;;;44.38;19.98;;;;;;;;;;4899078;29;20044;-63
2022/12/13 08:52:34;;;;;;;41.45;19.48;;;;;;;;;;4898981;29;20546;-62
2022/12/13 08:55:06;;;;;;;34.05;16.77;;;;;;;;;;4898175;29;20552;-62
2022/12/13 08:57:34;;;;;;;39.30;19.23;;;;;;;;;;4898673;29;20096;-62
2022/12/13 09:00:01;;;;;;;40.28;19.33;;;;;;;;;;4898838;29;20096;-61
2022/12/13 09:02:28;;;;;;;37.20;18.77;;;;;;;;;;4898526;29;20037;-62
2022/12/13 09:04:54;;;;;;;38.30;19.23;;;;;;;;;;4898656;29;20055;-62
2022/12/13 09:07:21;;;;;;;39.47;19.30;;;;;;;;;;4898212;29;20112;-62
2022/12/13 09:09:47;;;;;;;39.58;19.98;;;;;;;;;;4898461;29;20044;-61
2022/12/13 09:12:21;;;;;;;42.97;20.67;;;;;;;;;;4898576;29;20048;-62
2022/12/13 09:14:56;;;;;;;35.05;18.48;;;;;;;;;;4897219;29;20055;-62
2022/12/13 09:17:28;;;;;;;36.92;19.27;;;;;;;;;;4897918;29;20045;-62
2022/12/13 09:20:02;;;;;;;39.78;20.20;;;;;;;;;;4898363;29;20108;-61
2022/12/13 09:22:49;;;;;;;43.28;19.05;;;;;;;;;;4898109;29;20135;-61
2022/12/13 09:25:15;;;;;;;36.70;19.48;;;;;;;;;;4897631;29;20040;-61
2022/12/13 09:27:49;;;;;;;39.38;19.52;;;;;;;;;;4898229;29;20450;-60
2022/12/13 09:30:16;;;;;;;38.67;19.20;;;;;;;;;;4898120;29;20096;-61
2022/12/13 09:32:48;;;;;;;38.25;19.15;;;;;;;;;;4898460;29;20053;-61
2022/12/13 09:35:15;;;;;;;37.72;18.73;;;;;;;;;;4897783;29;20048;-63
2022/12/13 09:37:41;;;;;;;34.95;18.92;;;;;;;;;;4881697;29;20502;-60
2022/12/13 09:40:19;;;;;;;35.85;18.85;;;;;;;;;;4898157;29;20048;-62
2022/12/13 09:42:53;;;;;;;35.80;18.60;;;;;;;;;;4897958;29;20048;-61
2022/12/13 09:45:41;;;;;;;44.55;19.02;;;;;;;;;;4897300;29;20068;-61
2022/12/13 09:48:10;;;;;;;38.97;19.42;;;;;;;;;;4897831;29;20071;-62
2022/12/13 09:50:49;;;;;;;36.80;19.13;;;;;;;;;;4883052;29;20067;-60
2022/12/13 09:53:35;;;;;;;34.42;19.05;;;;;;;;;;4897938;29;20127;-60
2022/12/13 09:56:02;;;;;;;36.40;18.80;;;;;;;;;;4880118;29;20045;-61
2022/12/13 09:58:36;;;;;;;34.22;18.33;;;;;;;;;;4897657;29;20041;-61
2022/12/13 10:01:03;;;;;;;39.30;19.23;;;;;;;;;;4897548;29;20040;-61
2022/12/13 10:03:30;;;;;;;40.78;20.13;;;;;;;;;;4897365;29;20052;-59
2022/12/13 10:05:57;;;;;;;36.13;17.55;;;;;;;;;;4896991;29;20045;-60
2022/12/13 10:08:34;;;;;;;33.97;18.63;;;;;;;;;;4897430;29;20115;-61
2022/12/13 10:11:01;;;;;;;33.88;18.48;;;;;;;;;;4897549;29;20053;-61
2022/12/13 10:13:41;;;;;;;35.63;18.45;;;;;;;;;;4897346;29;20049;-59
2022/12/13 10:16:28;;;;;;;33.20;18.50;;;;;;;;;;4896707;29;20570;-60
2022/12/13 10:19:13;;;;;;;33.35;17.40;;;;;;;;;;4897372;29;20041;-58
2022/12/13 10:21:56;;;;;;;34.63;18.10;;;;;;;;;;4897142;29;20045;-60
2022/12/13 10:24:31;;;;;;;32.47;17.88;;;;;;;;;;4881575;29;20048;-59
2022/12/13 10:27:14;;;;;;;35.90;17.10;;;;;;;;;;4880439;29;20041;-60
2022/12/13 10:29:55;;;;;;;35.25;18.15;;;;;;;;;;4897296;29;20104;-59
2022/12/13 10:32:22;;;;;;;35.00;16.67;;;;;;;;;;4880499;29;20402;-58
2022/12/13 10:34:48;;;;;;;30.98;17.10;;;;;;;;;;4880789;29;20040;-60
2022/12/13 10:37:29;;;;;;;33.80;18.38;;;;;;;;;;4880062;29;20067;-61
2022/12/13 10:39:56;;;;;;;30.92;17.48;;;;;;;;;;4880561;29;20085;-61
2022/12/13 10:42:22;;;;;;;35.38;18.00;;;;;;;;;;4880444;29;20501;-60
2022/12/13 10:45:09;;;;;;;36.28;18.45;;;;;;;;;;4881395;29;20045;-61
2022/12/13 10:47:35;;;;;;;32.55;17.42;;;;;;;;;;4897429;29;20379;-58
2022/12/13 10:50:02;;;;;;;29.83;17.92;;;;;;;;;;4880208;29;20053;-59
2022/12/13 10:52:38;;;;;;;40.83;19.35;;;;;;;;;;4897064;29;20040;-59
2022/12/13 10:55:41;;;;;;;39.75;21.15;;;;;;;;;;4899018;29;20052;-58
2022/12/13 10:58:17;;;;;;;37.75;19.20;;;;;;;;;;4867314;29;20097;-60
2022/12/13 11:00:45;;;;;;;34.80;19.27;;;;;;;;;;4897201;29;20052;-59
2022/12/13 11:03:26;;;;;;;34.00;19.23;;;;;;;;;;4897261;29;20085;-60
2022/12/13 11:06:12;;;;;;;35.13;18.42;;;;;;;;;;4896455;29;20409;-60
2022/12/13 11:08:38;;;;;;;30.90;17.13;;;;;;;;;;4896985;29;20055;-61
2022/12/13 11:11:06;;;;;;;29.80;17.33;;;;;;;;;;4880393;29;20056;-60
2022/12/13 11:13:35;;;;;;;31.90;17.83;;;;;;;;;;4896771;29;20049;-60
2022/12/13 11:16:03;;;;;;;33.25;17.73;;;;;;;;;;4896284;29;20505;-62
2022/12/13 11:18:34;;;;;;;33.80;18.15;;;;;;;;;;4896818;29;20451;-62
2022/12/13 11:21:01;;;;;;;32.63;16.88;;;;;;;;;;4896937;29;20048;-62
2022/12/13 11:23:30;;;;;;;32.38;17.20;;;;;;;;;;4880130;29;20386;-62
2022/12/13 11:25:58;;;;;;;30.85;16.50;;;;;;;;;;4896153;29;20037;-63
2022/12/13 11:28:36;;;;;;;30.85;16.50;;;;;;;;;;4895445;29;20104;-62
2022/12/13 11:31:21;;;;;;;32.45;17.02;;;;;;;;;;4896723;29;20044;-63
2022/12/13 11:34:00;;;;;;;31.65;16.48;;;;;;;;;;4896603;29;20072;-62
2022/12/13 11:36:47;;;;;;;28.98;16.25;;;;;;;;;;4896266;29;20442;-61
2022/12/13 11:39:23;;;;;;;27.20;14.88;;;;;;;;;;4898713;29;20048;-62
2022/12/13 11:42:08;;;;;;;28.50;14.75;;;;;;;;;;4900183;29;20041;-62
2022/12/13 11:44:37;;;;;;;28.92;15.63;;;;;;;;;;4900025;29;20052;-62
2022/12/13 11:47:14;;;;;;;30.05;14.82;;;;;;;;;;4899435;29;20038;-62
2022/12/13 11:49:42;;;;;;;27.23;14.85;;;;;;;;;;4883138;29;20470;-61
2022/12/13 11:52:20;;;;;;;27.02;13.70;;;;;;;;;;4883230;29;20052;-62
2022/12/13 11:55:09;;;;;;;27.60;14.35;;;;;;;;;;4899859;29;20490;-61
2022/12/13 11:57:47;;;;;;;24.50;14.93;;;;;;;;;;4899341;29;20052;-62
2022/12/13 12:00:22;;;;;;;29.50;14.23;;;;;;;;;;4899892;29;20049;-62
2022/12/13 12:03:06;;;;;;;28.75;14.82;;;;;;;;;;4899986;29;20561;-62
2022/12/13 12:05:39;;;;;;;22.85;13.38;;;;;;;;;;4899399;29;20080;-64
2022/12/13 12:08:19;;;;;;;25.08;14.25;;;;;;;;;;4883203;29;20506;-62
2022/12/13 12:11:03;;;;;;;22.40;13.38;;;;;;;;;;4900507;29;20197;-62
2022/12/13 12:13:38;;;;;;;27.35;13.90;;;;;;;;;;4900202;29;20049;-62
2022/12/13 12:16:23;;;;;;;22.27;13.52;;;;;;;;;;4899521;29;20390;-63
2022/12/13 12:18:50;;;;;;;25.58;13.10;;;;;;;;;;4899401;29;20079;-62
2022/12/13 12:21:37;;;;;;;22.02;12.23;;;;;;;;;;4899431;29;20112;-62
2022/12/13 12:24:27;;;;;;;23.25;13.27;;;;;;;;;;4899950;29;20064;-62
2022/12/13 12:27:12;;;;;;;19.17;11.60;;;;;;;;;;4899032;29;20040;-62
2022/12/13 12:29:50;;;;;;;19.48;10.75;;;;;;;;;;4899941;29;20052;-62
2022/12/13 12:32:32;;;;;;;15.82;10.20;;;;;;;;;;4899252;29;20048;-62
2022/12/13 12:35:25;;;;;;;17.80;9.98;;;;;;;;;;4899031;29;20052;-62
2022/12/13 12:38:10;;;;;;;15.80;8.60;;;;;;;;;;4899613;29;20044;-62
2022/12/13 12:41:00;;;;;;;16.45;9.50;;;;;;;;;;4899878;29;20569;-62
2022/12/13 12:43:43;;;;;;;16.02;9.10;;;;;;;;;;4899656;29;20052;-62
2022/12/13 12:46:13;;;;;;;18.23;9.35;;;;;;;;;;4898679;29;20104;-60
2022/12/13 12:48:54;;;;;;;15.38;8.25;;;;;;;;;;4882563;29;20116;-60
2022/12/13 12:51:33;;;;;;;16.40;9.15;;;;;;;;;;4883326;29;20049;-61
2022/12/13 12:54:18;;;;;;;16.15;8.48;;;;;;;;;;4882139;29;20052;-60
2022/12/13 12:56:51;;;;;;;16.58;8.60;;;;;;;;;;4898132;29;20060;-60
2022/12/13 12:59:26;;;;;;;15.75;8.65;;;;;;;;;;4898933;29;20040;-60
2022/12/13 13:01:52;;;;;;;;;;;;;;;;;;4899022;29;20045;-60
2022/12/13 13:04:22;;;;;;;14.35;8.10;;;;;;;;;;4899117;29;19930;-59
2022/12/13 13:06:52;;;;;;;18.00;8.13;;;;;;;;;;4898196;29;20048;-61
2022/12/13 13:09:30;;;;;;;18.25;8.48;;;;;;;;;;4898531;29;20041;-61
2022/12/13 13:11:57;;;;;;;14.80;7.95;;;;;;;;;;4898468;29;20081;-61
2022/12/13 13:14:29;;;;;;;15.75;8.30;;;;;;;;;;4898421;29;20063;-61
2022/12/13 13:16:56;;;;;;;15.00;8.35;;;;;;;;;;4881187;29;20040;-61
2022/12/13 13:19:32;;;;;;;19.55;11.18;;;;;;;;;;4898220;29;20040;-61
2022/12/13 13:21:58;;;;;;;17.83;8.90;;;;;;;;;;4898547;29;20036;-60
2022/12/13 13:24:28;;;;;;;15.40;9.27;;;;;;;;;;4898236;29;20047;-60
2022/12/13 13:27:07;;;;;;;14.20;8.82;;;;;;;;;;4881148;29;20131;-61
2022/12/13 13:29:35;;;;;;;19.95;9.60;;;;;;;;;;4881516;29;20454;-61
2022/12/13 13:32:05;;;;;;;15.07;8.90;;;;;;;;;;4897901;29;20051;-61
2022/12/13 13:34:35;;;;;;;17.98;10.02;;;;;;;;;;4897996;29;20049;-61
2022/12/13 13:37:22;;;;;;;15.25;9.23;;;;;;;;;;4897310;29;20049;-61
2022/12/13 13:39:57;;;;;;;20.40;9.65;;;;;;;;;;4888370;29;20072;-61
2022/12/13 13:42:24;;;;;;;;;;;;;;;;;;4898310;29;20052;-61
2022/12/13 13:44:50;;;;;;;15.23;8.63;;;;;;;;;;4897774;29;19924;-61
2022/12/13 13:47:16;;;;;;;17.25;9.45;;;;;;;;;;4897411;29;20065;-61
2022/12/13 13:50:09;;;;;;;16.38;8.82;;;;;;;;;;4897749;29;20057;-60
2022/12/13 13:52:36;;;;;;;18.88;9.80;;;;;;;;;;4880981;29;20058;-61
2022/12/13 13:55:15;;;;;;;17.92;10.52;;;;;;;;;;4880423;29;20059;-61
2022/12/13 13:58:03;;;;;;;16.58;9.38;;;;;;;;;;4897761;29;20044;-61
2022/12/13 14:00:54;;;;;;;21.25;11.15;;;;;;;;;;4880411;29;20051;-59
2022/12/13 14:03:40;;;;;;;19.70;10.70;;;;;;;;;;4897525;29;20055;-61
2022/12/13 14:06:08;;;;;;;21.23;11.25;;;;;;;;;;4880454;29;20092;-60
2022/12/13 14:08:34;;;;;;;21.23;11.30;;;;;;;;;;4880605;29;20048;-59
2022/12/13 14:11:14;;;;;;;18.65;11.43;;;;;;;;;;4881042;29;20056;-59
2022/12/13 14:13:59;;;;;;;20.92;11.48;;;;;;;;;;4897605;29;20494;-60
2022/12/13 14:16:25;;;;;;;22.58;12.40;;;;;;;;;;4896991;29;20076;-59
2022/12/13 14:19:27;;;;;;;24.40;12.65;;;;;;;;;;4897049;29;20044;-60
2022/12/13 14:22:14;;;;;;;21.30;12.05;;;;;;;;;;4806002;29;20077;-60
2022/12/13 14:24:51;;;;;;;21.38;11.43;;;;;;;;;;4877476;29;20104;-60
2022/12/13 14:27:22;;;;;;;25.65;13.75;;;;;;;;;;4896960;29;20052;-61
2022/12/13 14:29:49;;;;;;;25.00;13.57;;;;;;;;;;4897388;29;20044;-60
2022/12/13 14:32:28;;;;;;;25.83;14.32;;;;;;;;;;4897344;29;20052;-59
2022/12/13 14:34:55;;;;;;;27.05;13.90;;;;;;;;;;4897223;29;20052;-62
2022/12/13 14:37:26;;;;;;;25.60;13.27;;;;;;;;;;4896938;29;20048;-60
2022/12/13 14:39:53;;;;;;;25.92;13.85;;;;;;;;;;4897203;29;20108;-61
2022/12/13 14:42:22;;;;;;;28.30;14.82;;;;;;;;;;4897212;29;20482;-61
2022/12/13 14:44:49;;;;;;;26.33;14.18;;;;;;;;;;4897078;29;20645;-61
2022/12/13 14:47:16;;;;;;;27.35;14.23;;;;;;;;;;4896833;29;20097;-61
2022/12/13 14:49:45;;;;;;;27.67;14.50;;;;;;;;;;4897899;29;20052;-60